sensor_id;sensor_type;location;lat;lon;timestamp;P1;durP1;ratioP1;P2;durP2;ratioP2
69030;SDS011;56083;48.774;8.942;2023-09-19T00:01:32;4.82;;;1.30;;
69030;SDS011;56083;48.774;8.942;2023-09-19T00:03:57;2.13;;;0.95;;
69030;SDS011;56083;48.774;8.942;2023-09-19T00:06:23;6.93;;;1.30;;
69030;SDS011;56083;48.774;8.942;2023-09-19T00:08:51;1.42;;;0.85;;
69030;SDS011;56083;48.774;8.942;2023-09-19T00:11:17;3.38;;;1.08;;
69030;SDS011;56083;48.774;8.942;2023-09-19T00:13:43;3.15;;;1.05;;
69030;SDS011;56083;48.774;8.942;2023-09-19T00:16:09;3.80;;;1.30;;
69030;SDS011;56083;48.774;8.942;2023-09-19T00:18:36;2.20;;;0.90;;
69030;SDS011;56083;48.774;8.942;2023-09-19T00:21:03;2.83;;;1.30;;
69030;SDS011;56083;48.774;8.942;2023-09-19T00:23:30;2.15;;;1.00;;
69030;SDS011;56083;48.774;8.942;2023-09-19T00:25:59;1.65;;;1.00;;
69030;SDS011;56083;48.774;8.942;2023-09-19T00:28:26;2.97;;;1.20;;
69030;SDS011;56083;48.774;8.942;2023-09-19T00:30:52;3.58;;;0.90;;
69030;SDS011;56083;48.774;8.942;2023-09-19T00:33:20;3.88;;;0.80;;
69030;SDS011;56083;48.774;8.942;2023-09-19T00:35:53;4.28;;;1.20;;
69030;SDS011;56083;48.774;8.942;2023-09-19T00:38:20;2.05;;;0.80;;
69030;SDS011;56083;48.774;8.942;2023-09-19T00:40:48;4.03;;;1.10;;
69030;SDS011;56083;48.774;8.942;2023-09-19T00:43:16;3.40;;;0.98;;
69030;SDS011;56083;48.774;8.942;2023-09-19T00:45:42;3.70;;;1.10;;
69030;SDS011;56083;48.774;8.942;2023-09-19T00:48:10;2.85;;;0.80;;
69030;SDS011;56083;48.774;8.942;2023-09-19T00:50:37;2.35;;;1.08;;
69030;SDS011;56083;48.774;8.942;2023-09-19T00:53:07;3.78;;;0.90;;
69030;SDS011;56083;48.774;8.942;2023-09-19T00:55:38;2.20;;;0.90;;
69030;SDS011;56083;48.774;8.942;2023-09-19T00:58:05;2.80;;;1.00;;
69030;SDS011;56083;48.774;8.942;2023-09-19T01:00:35;2.80;;;0.90;;
69030;SDS011;56083;48.774;8.942;2023-09-19T01:03:01;4.25;;;1.10;;
69030;SDS011;56083;48.774;8.942;2023-09-19T01:05:33;2.83;;;1.10;;
69030;SDS011;56083;48.774;8.942;2023-09-19T01:08:00;1.73;;;0.90;;
69030;SDS011;56083;48.774;8.942;2023-09-19T01:10:26;2.13;;;1.02;;
69030;SDS011;56083;48.774;8.942;2023-09-19T01:13:02;1.88;;;0.80;;
69030;SDS011;56083;48.774;8.942;2023-09-19T01:30:39;3.95;;;1.08;;
69030;SDS011;56083;48.774;8.942;2023-09-19T01:33:08;3.28;;;0.70;;
69030;SDS011;56083;48.774;8.942;2023-09-19T01:35:41;2.97;;;0.88;;
69030;SDS011;56083;48.774;8.942;2023-09-19T01:38:10;2.67;;;1.10;;
69030;SDS011;56083;48.774;8.942;2023-09-19T01:40:43;4.90;;;0.98;;
69030;SDS011;56083;48.774;8.942;2023-09-19T01:43:17;4.00;;;0.90;;
69030;SDS011;56083;48.774;8.942;2023-09-19T01:48:49;4.20;;;0.73;;
69030;SDS011;56083;48.774;8.942;2023-09-19T01:51:43;3.75;;;1.08;;
69030;SDS011;56083;48.774;8.942;2023-09-19T01:54:40;1.40;;;0.68;;
69030;SDS011;56083;48.774;8.942;2023-09-19T01:57:29;4.05;;;1.10;;
69030;SDS011;56083;48.774;8.942;2023-09-19T02:00:07;1.77;;;0.80;;
69030;SDS011;56083;48.774;8.942;2023-09-19T02:02:35;4.82;;;1.20;;
69030;SDS011;56083;48.774;8.942;2023-09-19T02:05:03;5.22;;;1.02;;
69030;SDS011;56083;48.774;8.942;2023-09-19T02:07:29;3.03;;;0.88;;
69030;SDS011;56083;48.774;8.942;2023-09-19T02:09:57;4.60;;;0.90;;
69030;SDS011;56083;48.774;8.942;2023-09-19T02:12:25;2.47;;;1.10;;
69030;SDS011;56083;48.774;8.942;2023-09-19T02:14:51;5.20;;;1.00;;
69030;SDS011;56083;48.774;8.942;2023-09-19T02:17:16;2.97;;;0.88;;
69030;SDS011;56083;48.774;8.942;2023-09-19T02:19:42;2.00;;;1.00;;
69030;SDS011;56083;48.774;8.942;2023-09-19T02:22:08;1.75;;;1.00;;
69030;SDS011;56083;48.774;8.942;2023-09-19T02:24:35;1.77;;;0.90;;
69030;SDS011;56083;48.774;8.942;2023-09-19T02:27:01;2.05;;;0.70;;
69030;SDS011;56083;48.774;8.942;2023-09-19T02:29:31;3.33;;;0.90;;
69030;SDS011;56083;48.774;8.942;2023-09-19T02:31:59;4.97;;;1.20;;
69030;SDS011;56083;48.774;8.942;2023-09-19T02:34:26;3.15;;;0.90;;
69030;SDS011;56083;48.774;8.942;2023-09-19T02:36:52;3.47;;;1.15;;
69030;SDS011;56083;48.774;8.942;2023-09-19T02:39:20;2.40;;;0.88;;
69030;SDS011;56083;48.774;8.942;2023-09-19T02:41:45;3.08;;;1.00;;
69030;SDS011;56083;48.774;8.942;2023-09-19T02:44:11;2.38;;;0.95;;
69030;SDS011;56083;48.774;8.942;2023-09-19T02:46:37;4.85;;;1.00;;
69030;SDS011;56083;48.774;8.942;2023-09-19T02:49:03;2.33;;;1.10;;
69030;SDS011;56083;48.774;8.942;2023-09-19T02:51:32;3.63;;;0.90;;
69030;SDS011;56083;48.774;8.942;2023-09-19T02:54:01;4.38;;;1.20;;
69030;SDS011;56083;48.774;8.942;2023-09-19T02:56:28;2.90;;;1.00;;
69030;SDS011;56083;48.774;8.942;2023-09-19T02:58:55;2.13;;;0.88;;
69030;SDS011;56083;48.774;8.942;2023-09-19T03:01:21;3.97;;;1.35;;
69030;SDS011;56083;48.774;8.942;2023-09-19T03:03:47;2.88;;;1.00;;
69030;SDS011;56083;48.774;8.942;2023-09-19T03:06:13;4.07;;;0.98;;
69030;SDS011;56083;48.774;8.942;2023-09-19T03:08:39;1.38;;;0.85;;
69030;SDS011;56083;48.774;8.942;2023-09-19T03:11:07;3.67;;;0.90;;
69030;SDS011;56083;48.774;8.942;2023-09-19T03:13:37;2.20;;;0.93;;
69030;SDS011;56083;48.774;8.942;2023-09-19T03:16:04;5.13;;;1.20;;
69030;SDS011;56083;48.774;8.942;2023-09-19T03:18:31;1.98;;;0.90;;
69030;SDS011;56083;48.774;8.942;2023-09-19T03:20:57;3.58;;;1.10;;
69030;SDS011;56083;48.774;8.942;2023-09-19T03:23:26;4.68;;;1.20;;
69030;SDS011;56083;48.774;8.942;2023-09-19T03:25:52;1.98;;;0.95;;
69030;SDS011;56083;48.774;8.942;2023-09-19T03:28:19;2.13;;;0.90;;
69030;SDS011;56083;48.774;8.942;2023-09-19T03:30:56;3.78;;;1.20;;
69030;SDS011;56083;48.774;8.942;2023-09-19T03:33:24;2.95;;;1.13;;
69030;SDS011;56083;48.774;8.942;2023-09-19T03:35:53;5.60;;;1.20;;
69030;SDS011;56083;48.774;8.942;2023-09-19T03:38:19;2.72;;;0.88;;
69030;SDS011;56083;48.774;8.942;2023-09-19T03:40:46;2.97;;;1.00;;
69030;SDS011;56083;48.774;8.942;2023-09-19T03:43:13;4.22;;;1.20;;
69030;SDS011;56083;48.774;8.942;2023-09-19T03:45:39;8.43;;;0.90;;
69030;SDS011;56083;48.774;8.942;2023-09-19T03:48:11;2.47;;;1.17;;
69030;SDS011;56083;48.774;8.942;2023-09-19T03:50:37;3.15;;;1.10;;
69030;SDS011;56083;48.774;8.942;2023-09-19T03:53:03;3.80;;;1.20;;
69030;SDS011;56083;48.774;8.942;2023-09-19T03:55:29;1.92;;;0.82;;
69030;SDS011;56083;48.774;8.942;2023-09-19T03:57:55;3.13;;;1.20;;
69030;SDS011;56083;48.774;8.942;2023-09-19T04:00:22;4.03;;;1.10;;
69030;SDS011;56083;48.774;8.942;2023-09-19T04:02:54;1.73;;;0.98;;
69030;SDS011;56083;48.774;8.942;2023-09-19T04:05:22;2.55;;;0.98;;
69030;SDS011;56083;48.774;8.942;2023-09-19T04:07:52;6.00;;;1.15;;
69030;SDS011;56083;48.774;8.942;2023-09-19T04:10:30;2.35;;;1.00;;
69030;SDS011;56083;48.774;8.942;2023-09-19T04:13:00;3.92;;;1.13;;
69030;SDS011;56083;48.774;8.942;2023-09-19T04:15:50;2.22;;;1.10;;
69030;SDS011;56083;48.774;8.942;2023-09-19T04:18:28;3.20;;;1.35;;
69030;SDS011;56083;48.774;8.942;2023-09-19T04:20:56;6.63;;;1.50;;
69030;SDS011;56083;48.774;8.942;2023-09-19T04:23:29;5.47;;;1.23;;
69030;SDS011;56083;48.774;8.942;2023-09-19T04:25:58;3.08;;;1.10;;
69030;SDS011;56083;48.774;8.942;2023-09-19T04:28:26;3.22;;;1.23;;
69030;SDS011;56083;48.774;8.942;2023-09-19T04:30:55;2.85;;;1.08;;
69030;SDS011;56083;48.774;8.942;2023-09-19T04:33:21;2.40;;;1.00;;
69030;SDS011;56083;48.774;8.942;2023-09-19T04:35:48;3.42;;;1.17;;
69030;SDS011;56083;48.774;8.942;2023-09-19T04:38:18;3.22;;;1.20;;
69030;SDS011;56083;48.774;8.942;2023-09-19T04:40:44;3.58;;;1.30;;
69030;SDS011;56083;48.774;8.942;2023-09-19T04:43:10;3.30;;;1.20;;
69030;SDS011;56083;48.774;8.942;2023-09-19T04:45:36;2.45;;;1.67;;
69030;SDS011;56083;48.774;8.942;2023-09-19T04:48:04;3.92;;;1.63;;
69030;SDS011;56083;48.774;8.942;2023-09-19T04:50:31;6.78;;;1.83;;
69030;SDS011;56083;48.774;8.942;2023-09-19T04:52:59;4.18;;;1.90;;
69030;SDS011;56083;48.774;8.942;2023-09-19T04:55:26;5.15;;;1.90;;
69030;SDS011;56083;48.774;8.942;2023-09-19T04:57:52;3.17;;;1.70;;
69030;SDS011;56083;48.774;8.942;2023-09-19T05:00:19;5.20;;;2.15;;
69030;SDS011;56083;48.774;8.942;2023-09-19T05:02:49;3.42;;;1.80;;
69030;SDS011;56083;48.774;8.942;2023-09-19T05:05:16;7.13;;;2.25;;
69030;SDS011;56083;48.774;8.942;2023-09-19T05:07:42;3.20;;;1.90;;
69030;SDS011;56083;48.774;8.942;2023-09-19T05:10:12;8.68;;;2.40;;
69030;SDS011;56083;48.774;8.942;2023-09-19T05:12:38;5.53;;;2.20;;
69030;SDS011;56083;48.774;8.942;2023-09-19T05:15:04;5.40;;;2.30;;
69030;SDS011;56083;48.774;8.942;2023-09-19T05:17:32;5.82;;;2.42;;
69030;SDS011;56083;48.774;8.942;2023-09-19T05:19:58;5.90;;;2.50;;
69030;SDS011;56083;48.774;8.942;2023-09-19T05:22:26;5.30;;;2.60;;
69030;SDS011;56083;48.774;8.942;2023-09-19T05:24:52;5.28;;;2.63;;
69030;SDS011;56083;48.774;8.942;2023-09-19T05:27:18;6.03;;;2.08;;
69030;SDS011;56083;48.774;8.942;2023-09-19T05:29:45;13.05;;;2.38;;
69030;SDS011;56083;48.774;8.942;2023-09-19T05:32:11;6.05;;;2.25;;
69030;SDS011;56083;48.774;8.942;2023-09-19T05:34:37;2.78;;;1.70;;
69030;SDS011;56083;48.774;8.942;2023-09-19T05:37:05;2.45;;;1.40;;
69030;SDS011;56083;48.774;8.942;2023-09-19T05:39:32;3.30;;;1.38;;
69030;SDS011;56083;48.774;8.942;2023-09-19T05:41:58;3.83;;;1.65;;
69030;SDS011;56083;48.774;8.942;2023-09-19T05:44:25;5.00;;;1.35;;
69030;SDS011;56083;48.774;8.942;2023-09-19T05:46:51;5.70;;;1.92;;
69030;SDS011;56083;48.774;8.942;2023-09-19T05:49:16;5.43;;;1.73;;
69030;SDS011;56083;48.774;8.942;2023-09-19T05:51:42;2.85;;;1.75;;
69030;SDS011;56083;48.774;8.942;2023-09-19T05:54:08;4.32;;;1.80;;
69030;SDS011;56083;48.774;8.942;2023-09-19T05:56:34;3.33;;;1.60;;
69030;SDS011;56083;48.774;8.942;2023-09-19T05:58:59;6.43;;;2.40;;
69030;SDS011;56083;48.774;8.942;2023-09-19T06:01:25;5.82;;;2.25;;
69030;SDS011;56083;48.774;8.942;2023-09-19T06:03:52;5.10;;;2.20;;
69030;SDS011;56083;48.774;8.942;2023-09-19T06:06:18;6.88;;;2.10;;
69030;SDS011;56083;48.774;8.942;2023-09-19T06:08:44;8.23;;;2.10;;
69030;SDS011;56083;48.774;8.942;2023-09-19T06:11:09;7.55;;;2.20;;
69030;SDS011;56083;48.774;8.942;2023-09-19T06:13:35;6.28;;;2.05;;
69030;SDS011;56083;48.774;8.942;2023-09-19T06:16:04;8.00;;;2.15;;
69030;SDS011;56083;48.774;8.942;2023-09-19T06:18:30;9.70;;;2.60;;
69030;SDS011;56083;48.774;8.942;2023-09-19T06:21:01;7.57;;;2.10;;
69030;SDS011;56083;48.774;8.942;2023-09-19T06:23:32;11.18;;;2.42;;
69030;SDS011;56083;48.774;8.942;2023-09-19T06:25:59;4.70;;;2.10;;
69030;SDS011;56083;48.774;8.942;2023-09-19T06:28:24;4.10;;;1.95;;
69030;SDS011;56083;48.774;8.942;2023-09-19T06:30:56;7.53;;;2.00;;
69030;SDS011;56083;48.774;8.942;2023-09-19T06:33:22;4.35;;;1.80;;
69030;SDS011;56083;48.774;8.942;2023-09-19T06:35:48;3.95;;;1.83;;
69030;SDS011;56083;48.774;8.942;2023-09-19T06:38:15;7.25;;;2.08;;
69030;SDS011;56083;48.774;8.942;2023-09-19T06:40:41;5.95;;;1.73;;
69030;SDS011;56083;48.774;8.942;2023-09-19T06:43:09;6.45;;;1.92;;
69030;SDS011;56083;48.774;8.942;2023-09-19T06:45:36;4.13;;;1.80;;
69030;SDS011;56083;48.774;8.942;2023-09-19T06:48:03;4.57;;;1.95;;
69030;SDS011;56083;48.774;8.942;2023-09-19T06:50:31;6.90;;;2.00;;
69030;SDS011;56083;48.774;8.942;2023-09-19T06:52:58;4.88;;;1.58;;
69030;SDS011;56083;48.774;8.942;2023-09-19T06:55:27;4.63;;;1.98;;
69030;SDS011;56083;48.774;8.942;2023-09-19T06:57:57;6.88;;;2.15;;
69030;SDS011;56083;48.774;8.942;2023-09-19T07:00:24;5.95;;;1.90;;
69030;SDS011;56083;48.774;8.942;2023-09-19T07:02:54;5.60;;;1.98;;
69030;SDS011;56083;48.774;8.942;2023-09-19T07:05:20;7.03;;;1.65;;
69030;SDS011;56083;48.774;8.942;2023-09-19T07:07:51;6.25;;;1.60;;
69030;SDS011;56083;48.774;8.942;2023-09-19T07:10:24;5.43;;;1.60;;
69030;SDS011;56083;48.774;8.942;2023-09-19T07:13:01;7.30;;;2.00;;
69030;SDS011;56083;48.774;8.942;2023-09-19T07:15:29;6.97;;;1.90;;
69030;SDS011;56083;48.774;8.942;2023-09-19T07:18:00;5.28;;;1.65;;
69030;SDS011;56083;48.774;8.942;2023-09-19T07:20:26;5.97;;;1.80;;
69030;SDS011;56083;48.774;8.942;2023-09-19T07:22:53;4.97;;;1.50;;
69030;SDS011;56083;48.774;8.942;2023-09-19T07:25:24;6.75;;;1.90;;
69030;SDS011;56083;48.774;8.942;2023-09-19T07:27:50;8.52;;;1.92;;
69030;SDS011;56083;48.774;8.942;2023-09-19T07:30:17;8.15;;;2.10;;
69030;SDS011;56083;48.774;8.942;2023-09-19T07:32:43;6.88;;;1.83;;
69030;SDS011;56083;48.774;8.942;2023-09-19T07:35:09;5.00;;;1.63;;
69030;SDS011;56083;48.774;8.942;2023-09-19T07:37:35;6.05;;;1.60;;
69030;SDS011;56083;48.774;8.942;2023-09-19T07:40:02;7.50;;;1.52;;
69030;SDS011;56083;48.774;8.942;2023-09-19T07:42:35;3.40;;;1.58;;
69030;SDS011;56083;48.774;8.942;2023-09-19T07:45:04;5.13;;;1.70;;
69030;SDS011;56083;48.774;8.942;2023-09-19T07:47:31;5.57;;;1.40;;
69030;SDS011;56083;48.774;8.942;2023-09-19T07:49:57;2.55;;;1.30;;
69030;SDS011;56083;48.774;8.942;2023-09-19T07:52:24;4.97;;;1.35;;
69030;SDS011;56083;48.774;8.942;2023-09-19T07:54:53;6.05;;;1.40;;
69030;SDS011;56083;48.774;8.942;2023-09-19T07:57:19;5.00;;;1.65;;
69030;SDS011;56083;48.774;8.942;2023-09-19T07:59:45;7.80;;;1.40;;
69030;SDS011;56083;48.774;8.942;2023-09-19T08:02:11;2.95;;;1.10;;
69030;SDS011;56083;48.774;8.942;2023-09-19T08:04:42;3.38;;;1.02;;
69030;SDS011;56083;48.774;8.942;2023-09-19T08:07:08;5.22;;;1.35;;
69030;SDS011;56083;48.774;8.942;2023-09-19T08:09:33;4.95;;;1.30;;
69030;SDS011;56083;48.774;8.942;2023-09-19T08:12:00;2.50;;;1.10;;
69030;SDS011;56083;48.774;8.942;2023-09-19T08:14:28;1.25;;;1.00;;
69030;SDS011;56083;48.774;8.942;2023-09-19T08:16:57;3.33;;;1.15;;
69030;SDS011;56083;48.774;8.942;2023-09-19T08:19:24;6.20;;;1.25;;
69030;SDS011;56083;48.774;8.942;2023-09-19T08:21:54;5.97;;;1.20;;
69030;SDS011;56083;48.774;8.942;2023-09-19T08:24:24;2.42;;;1.08;;
69030;SDS011;56083;48.774;8.942;2023-09-19T08:26:53;1.73;;;0.90;;
69030;SDS011;56083;48.774;8.942;2023-09-19T08:29:23;2.63;;;0.90;;
69030;SDS011;56083;48.774;8.942;2023-09-19T08:31:58;2.25;;;1.10;;
69030;SDS011;56083;48.774;8.942;2023-09-19T08:34:24;3.10;;;1.00;;
69030;SDS011;56083;48.774;8.942;2023-09-19T08:36:51;3.40;;;1.00;;
69030;SDS011;56083;48.774;8.942;2023-09-19T08:39:22;2.15;;;0.90;;
69030;SDS011;56083;48.774;8.942;2023-09-19T08:41:59;4.75;;;1.10;;
69030;SDS011;56083;48.774;8.942;2023-09-19T08:44:29;3.00;;;0.98;;
69030;SDS011;56083;48.774;8.942;2023-09-19T08:47:01;3.88;;;1.10;;
69030;SDS011;56083;48.774;8.942;2023-09-19T08:49:58;2.17;;;1.15;;
69030;SDS011;56083;48.774;8.942;2023-09-19T08:52:43;12.68;;;1.30;;
69030;SDS011;56083;48.774;8.942;2023-09-19T08:55:18;3.45;;;1.20;;
69030;SDS011;56083;48.774;8.942;2023-09-19T08:57:47;2.63;;;1.23;;
69030;SDS011;56083;48.774;8.942;2023-09-19T09:00:15;3.08;;;1.10;;
69030;SDS011;56083;48.774;8.942;2023-09-19T09:02:46;3.38;;;1.15;;
69030;SDS011;56083;48.774;8.942;2023-09-19T09:05:14;6.07;;;1.40;;
69030;SDS011;56083;48.774;8.942;2023-09-19T09:07:41;4.28;;;1.25;;
69030;SDS011;56083;48.774;8.942;2023-09-19T09:10:08;4.50;;;1.13;;
69030;SDS011;56083;48.774;8.942;2023-09-19T09:12:35;14.50;;;1.90;;
69030;SDS011;56083;48.774;8.942;2023-09-19T09:15:02;6.30;;;1.30;;
69030;SDS011;56083;48.774;8.942;2023-09-19T09:17:29;3.72;;;1.38;;
69030;SDS011;56083;48.774;8.942;2023-09-19T09:19:55;2.97;;;1.23;;
69030;SDS011;56083;48.774;8.942;2023-09-19T09:22:21;2.47;;;1.10;;
69030;SDS011;56083;48.774;8.942;2023-09-19T09:24:56;4.63;;;1.40;;
69030;SDS011;56083;48.774;8.942;2023-09-19T09:27:29;5.20;;;1.27;;
69030;SDS011;56083;48.774;8.942;2023-09-19T09:29:57;3.72;;;1.17;;
69030;SDS011;56083;48.774;8.942;2023-09-19T09:32:30;5.93;;;1.20;;
69030;SDS011;56083;48.774;8.942;2023-09-19T09:35:01;2.50;;;1.23;;
69030;SDS011;56083;48.774;8.942;2023-09-19T09:37:34;2.25;;;1.10;;
69030;SDS011;56083;48.774;8.942;2023-09-19T09:40:03;3.67;;;1.23;;
69030;SDS011;56083;48.774;8.942;2023-09-19T09:42:42;4.88;;;1.33;;
69030;SDS011;56083;48.774;8.942;2023-09-19T09:47:41;3.40;;;1.30;;
69030;SDS011;56083;48.774;8.942;2023-09-19T09:50:32;3.08;;;1.27;;
69030;SDS011;56083;48.774;8.942;2023-09-19T09:56:05;3.17;;;1.40;;
69030;SDS011;56083;48.774;8.942;2023-09-19T09:58:37;5.70;;;1.27;;
69030;SDS011;56083;48.774;8.942;2023-09-19T10:01:05;4.05;;;1.30;;
69030;SDS011;56083;48.774;8.942;2023-09-19T10:06:09;3.70;;;1.33;;
69030;SDS011;56083;48.774;8.942;2023-09-19T10:09:04;2.85;;;1.40;;
69030;SDS011;56083;48.774;8.942;2023-09-19T10:14:29;3.63;;;1.33;;
69030;SDS011;56083;48.774;8.942;2023-09-19T10:16:59;4.28;;;1.20;;
69030;SDS011;56083;48.774;8.942;2023-09-19T10:19:42;1.92;;;1.10;;
69030;SDS011;56083;48.774;8.942;2023-09-19T10:22:22;3.47;;;1.33;;
69030;SDS011;56083;48.774;8.942;2023-09-19T10:24:49;4.10;;;1.23;;
69030;SDS011;56083;48.774;8.942;2023-09-19T10:27:18;4.28;;;1.00;;
69030;SDS011;56083;48.774;8.942;2023-09-19T10:29:47;3.55;;;1.00;;
69030;SDS011;56083;48.774;8.942;2023-09-19T10:32:19;3.38;;;1.20;;
69030;SDS011;56083;48.774;8.942;2023-09-19T10:34:46;3.92;;;1.17;;
69030;SDS011;56083;48.774;8.942;2023-09-19T10:37:13;2.38;;;1.00;;
69030;SDS011;56083;48.774;8.942;2023-09-19T10:39:41;4.38;;;1.30;;
69030;SDS011;56083;48.774;8.942;2023-09-19T10:42:11;3.42;;;1.20;;
69030;SDS011;56083;48.774;8.942;2023-09-19T10:44:43;3.13;;;1.05;;
69030;SDS011;56083;48.774;8.942;2023-09-19T10:47:12;4.75;;;1.10;;
69030;SDS011;56083;48.774;8.942;2023-09-19T10:49:45;4.10;;;1.20;;
69030;SDS011;56083;48.774;8.942;2023-09-19T10:52:12;3.67;;;1.08;;
69030;SDS011;56083;48.774;8.942;2023-09-19T10:54:52;2.70;;;1.10;;
69030;SDS011;56083;48.774;8.942;2023-09-19T10:57:22;5.47;;;1.00;;
69030;SDS011;56083;48.774;8.942;2023-09-19T11:00:05;2.25;;;1.05;;
69030;SDS011;56083;48.774;8.942;2023-09-19T11:05:37;6.68;;;1.10;;
69030;SDS011;56083;48.774;8.942;2023-09-19T11:08:06;2.67;;;0.98;;
69030;SDS011;56083;48.774;8.942;2023-09-19T11:13:29;4.35;;;1.25;;
69030;SDS011;56083;48.774;8.942;2023-09-19T11:26:42;4.45;;;1.00;;
69030;SDS011;56083;48.774;8.942;2023-09-19T11:29:28;3.67;;;1.15;;
69030;SDS011;56083;48.774;8.942;2023-09-19T11:31:55;2.38;;;0.80;;
69030;SDS011;56083;48.774;8.942;2023-09-19T11:37:01;2.13;;;1.08;;
69030;SDS011;56083;48.774;8.942;2023-09-19T11:39:29;2.28;;;0.90;;
69030;SDS011;56083;48.774;8.942;2023-09-19T11:41:55;2.33;;;1.30;;
69030;SDS011;56083;48.774;8.942;2023-09-19T11:49:18;5.00;;;0.90;;
69030;SDS011;56083;48.774;8.942;2023-09-19T11:51:48;2.58;;;1.25;;
69030;SDS011;56083;48.774;8.942;2023-09-19T11:54:19;2.10;;;0.95;;
69030;SDS011;56083;48.774;8.942;2023-09-19T11:56:49;3.67;;;1.10;;
69030;SDS011;56083;48.774;8.942;2023-09-19T11:59:21;2.05;;;1.10;;
69030;SDS011;56083;48.774;8.942;2023-09-19T12:02:01;2.55;;;0.95;;
69030;SDS011;56083;48.774;8.942;2023-09-19T12:07:05;4.13;;;1.13;;
69030;SDS011;56083;48.774;8.942;2023-09-19T12:09:35;1.60;;;0.90;;
69030;SDS011;56083;48.774;8.942;2023-09-19T12:12:07;5.38;;;1.23;;
69030;SDS011;56083;48.774;8.942;2023-09-19T12:14:34;2.35;;;0.90;;
69030;SDS011;56083;48.774;8.942;2023-09-19T12:17:00;4.88;;;1.20;;
69030;SDS011;56083;48.774;8.942;2023-09-19T12:19:28;4.72;;;1.05;;
69030;SDS011;56083;48.774;8.942;2023-09-19T12:22:01;1.85;;;0.80;;
69030;SDS011;56083;48.774;8.942;2023-09-19T12:24:31;3.17;;;1.10;;
69030;SDS011;56083;48.774;8.942;2023-09-19T12:27:06;2.97;;;1.10;;
69030;SDS011;56083;48.774;8.942;2023-09-19T12:29:42;3.13;;;1.20;;
69030;SDS011;56083;48.774;8.942;2023-09-19T12:32:15;4.82;;;1.00;;
69030;SDS011;56083;48.774;8.942;2023-09-19T12:34:52;5.45;;;1.17;;
69030;SDS011;56083;48.774;8.942;2023-09-19T12:37:19;2.55;;;1.10;;
69030;SDS011;56083;48.774;8.942;2023-09-19T12:39:52;2.65;;;1.00;;
69030;SDS011;56083;48.774;8.942;2023-09-19T12:42:39;3.75;;;1.33;;
69030;SDS011;56083;48.774;8.942;2023-09-19T12:45:06;3.88;;;1.38;;
69030;SDS011;56083;48.774;8.942;2023-09-19T12:47:34;3.80;;;1.10;;
69030;SDS011;56083;48.774;8.942;2023-09-19T12:50:10;2.95;;;1.10;;
69030;SDS011;56083;48.774;8.942;2023-09-19T12:52:49;4.10;;;1.20;;
69030;SDS011;56083;48.774;8.942;2023-09-19T12:55:22;4.22;;;1.27;;
69030;SDS011;56083;48.774;8.942;2023-09-19T13:00:38;4.30;;;1.20;;
69030;SDS011;56083;48.774;8.942;2023-09-19T13:03:13;3.72;;;1.08;;
69030;SDS011;56083;48.774;8.942;2023-09-19T13:08:28;3.80;;;1.20;;
69030;SDS011;56083;48.774;8.942;2023-09-19T13:13:48;2.17;;;1.10;;
69030;SDS011;56083;48.774;8.942;2023-09-19T13:16:20;4.95;;;1.20;;
69030;SDS011;56083;48.774;8.942;2023-09-19T13:21:20;2.55;;;1.17;;
69030;SDS011;56083;48.774;8.942;2023-09-19T13:24:18;5.30;;;1.23;;
69030;SDS011;56083;48.774;8.942;2023-09-19T13:26:45;4.63;;;1.33;;
69030;SDS011;56083;48.774;8.942;2023-09-19T13:29:11;1.33;;;1.02;;
69030;SDS011;56083;48.774;8.942;2023-09-19T13:31:37;4.70;;;1.15;;
69030;SDS011;56083;48.774;8.942;2023-09-19T13:34:06;1.73;;;1.00;;
69030;SDS011;56083;48.774;8.942;2023-09-19T13:36:32;4.32;;;1.17;;
69030;SDS011;56083;48.774;8.942;2023-09-19T13:38:58;3.22;;;1.10;;
69030;SDS011;56083;48.774;8.942;2023-09-19T13:41:25;4.78;;;1.10;;
69030;SDS011;56083;48.774;8.942;2023-09-19T13:43:51;3.13;;;1.20;;
69030;SDS011;56083;48.774;8.942;2023-09-19T13:46:17;5.25;;;1.05;;
69030;SDS011;56083;48.774;8.942;2023-09-19T13:51:17;2.53;;;1.33;;
69030;SDS011;56083;48.774;8.942;2023-09-19T13:53:44;3.47;;;1.30;;
69030;SDS011;56083;48.774;8.942;2023-09-19T13:56:09;4.40;;;1.02;;
69030;SDS011;56083;48.774;8.942;2023-09-19T13:58:36;1.58;;;1.02;;
69030;SDS011;56083;48.774;8.942;2023-09-19T14:01:01;4.60;;;1.30;;
69030;SDS011;56083;48.774;8.942;2023-09-19T14:03:28;6.82;;;1.10;;
69030;SDS011;56083;48.774;8.942;2023-09-19T14:05:53;2.00;;;1.13;;
69030;SDS011;56083;48.774;8.942;2023-09-19T14:08:19;3.50;;;1.08;;
69030;SDS011;56083;48.774;8.942;2023-09-19T14:10:45;2.53;;;1.00;;
69030;SDS011;56083;48.774;8.942;2023-09-19T14:13:11;2.75;;;1.13;;
69030;SDS011;56083;48.774;8.942;2023-09-19T14:15:38;2.20;;;1.10;;
69030;SDS011;56083;48.774;8.942;2023-09-19T14:18:04;2.83;;;1.20;;
69030;SDS011;56083;48.774;8.942;2023-09-19T14:20:30;2.67;;;0.95;;
69030;SDS011;56083;48.774;8.942;2023-09-19T14:22:56;2.58;;;1.10;;
69030;SDS011;56083;48.774;8.942;2023-09-19T14:25:24;2.28;;;1.10;;
69030;SDS011;56083;48.774;8.942;2023-09-19T14:27:50;1.85;;;1.00;;
69030;SDS011;56083;48.774;8.942;2023-09-19T14:30:16;1.67;;;1.10;;
69030;SDS011;56083;48.774;8.942;2023-09-19T14:32:42;2.17;;;0.90;;
69030;SDS011;56083;48.774;8.942;2023-09-19T14:35:08;1.80;;;0.90;;
69030;SDS011;56083;48.774;8.942;2023-09-19T14:37:38;5.57;;;1.20;;
69030;SDS011;56083;48.774;8.942;2023-09-19T14:40:05;5.78;;;1.08;;
69030;SDS011;56083;48.774;8.942;2023-09-19T14:42:34;1.83;;;0.90;;
69030;SDS011;56083;48.774;8.942;2023-09-19T14:45:10;1.23;;;0.90;;
69030;SDS011;56083;48.774;8.942;2023-09-19T14:47:36;2.20;;;0.88;;
69030;SDS011;56083;48.774;8.942;2023-09-19T14:50:03;6.72;;;1.15;;
69030;SDS011;56083;48.774;8.942;2023-09-19T14:52:31;5.88;;;1.15;;
69030;SDS011;56083;48.774;8.942;2023-09-19T14:55:01;3.17;;;1.05;;
69030;SDS011;56083;48.774;8.942;2023-09-19T14:57:27;3.35;;;0.98;;
69030;SDS011;56083;48.774;8.942;2023-09-19T14:59:53;1.60;;;0.80;;
69030;SDS011;56083;48.774;8.942;2023-09-19T15:02:19;1.63;;;0.90;;
69030;SDS011;56083;48.774;8.942;2023-09-19T15:04:45;4.22;;;0.90;;
69030;SDS011;56083;48.774;8.942;2023-09-19T15:07:13;4.35;;;0.88;;
69030;SDS011;56083;48.774;8.942;2023-09-19T15:09:42;3.95;;;1.13;;
69030;SDS011;56083;48.774;8.942;2023-09-19T15:12:08;2.25;;;0.95;;
69030;SDS011;56083;48.774;8.942;2023-09-19T15:14:36;2.20;;;0.82;;
69030;SDS011;56083;48.774;8.942;2023-09-19T15:17:02;1.73;;;0.75;;
69030;SDS011;56083;48.774;8.942;2023-09-19T15:19:29;3.30;;;0.93;;
69030;SDS011;56083;48.774;8.942;2023-09-19T15:21:55;5.72;;;3.22;;
69030;SDS011;56083;48.774;8.942;2023-09-19T15:24:22;2.83;;;1.10;;
69030;SDS011;56083;48.774;8.942;2023-09-19T15:26:51;2.45;;;0.88;;
69030;SDS011;56083;48.774;8.942;2023-09-19T15:29:17;2.13;;;0.95;;
69030;SDS011;56083;48.774;8.942;2023-09-19T15:31:44;3.10;;;0.93;;
69030;SDS011;56083;48.774;8.942;2023-09-19T15:34:09;1.98;;;1.00;;
69030;SDS011;56083;48.774;8.942;2023-09-19T15:36:40;2.42;;;0.90;;
69030;SDS011;56083;48.774;8.942;2023-09-19T15:39:07;2.25;;;0.82;;
69030;SDS011;56083;48.774;8.942;2023-09-19T15:41:36;1.45;;;0.80;;
69030;SDS011;56083;48.774;8.942;2023-09-19T15:44:03;4.53;;;0.82;;
69030;SDS011;56083;48.774;8.942;2023-09-19T15:46:30;3.55;;;1.10;;
69030;SDS011;56083;48.774;8.942;2023-09-19T15:48:59;1.45;;;0.70;;
69030;SDS011;56083;48.774;8.942;2023-09-19T15:51:25;3.22;;;0.77;;
69030;SDS011;56083;48.774;8.942;2023-09-19T15:53:52;2.67;;;0.95;;
69030;SDS011;56083;48.774;8.942;2023-09-19T15:56:20;2.00;;;0.80;;
69030;SDS011;56083;48.774;8.942;2023-09-19T15:58:48;6.68;;;1.08;;
69030;SDS011;56083;48.774;8.942;2023-09-19T16:01:14;2.13;;;0.90;;
69030;SDS011;56083;48.774;8.942;2023-09-19T16:03:47;4.10;;;1.00;;
69030;SDS011;56083;48.774;8.942;2023-09-19T16:08:44;2.45;;;0.80;;
69030;SDS011;56083;48.774;8.942;2023-09-19T16:11:11;1.65;;;0.77;;